Startpagina
METAR-TAF:

METAR-TAF

Vliegvelden :

Luchthaven Toncontín

Tegucigalpa, Honduras

breedte: 14-03N, lengte: 087-13W, hoogte: 994 m

Actueel weer

Dit bericht is 25 minuten geleden gemaakt, om 22:00 UTC
Wind 6 kt uit het oosten
Temperatuur 27°C
Vochtigheid 42%
Druk 1020 hPa
Zicht 10 km of meer
Weinig wolken op 3200 ft
Gebroken wolken op 25000 ft

METAR: MHTG 222200Z 10006KT 9999 FEW032 BKN250 27/13 Q1020 A3012 NOSIG

Tijdstip: 16:25 (22:25 UTC)

Verwachting

Dit bericht is 6 uur en het 0 minuten geleden gemaakt, om 16:25 UTC
Verwachting geldig van 22 om 18 UTC tot 23 om 18 UTC
Wind 10 kt uit het oosten
Zicht 10 km of meer
Weinig wolken op 3000 ft
Wijzigt naar
van 23 om 03 UTC tot 23 om 05 UTC
Wind kt uit het noorden
Verspreide wolken op 2600 ft

TAF: MHTG 221625Z 2218/2318 09010KT 9999 FEW030 TX29/2221Z TN14/2312Z BECMG 2303/2305 00000KT SCT026

Waarnemingen en weersverwachtingen van meer dan 4000 vliegvelden (METAR en TAF).

De beschikbare stations zijn de gele en rode punten op de kaart.

Ga met uw muis naar het station om de naam te zien.

Klik dan om waarnemingen en weersverwachtingen te zien.

kaart wijzigen: klik op de groene knoppen met een zwart kruis om in te zoomen, op de groene knop met een streepje om uit te zoomen of op de groene pijlen voor aangrenzende kaarten.


METAR-TAF: